createdAt,value
2023-05-03T00:01:48.153Z,9.80
2023-05-03T00:04:17.005Z,9.80
2023-05-03T00:06:44.976Z,9.80
2023-05-03T00:09:12.349Z,9.80
2023-05-03T00:11:39.661Z,9.70
2023-05-03T00:14:06.935Z,9.70
2023-05-03T00:16:34.337Z,9.70
2023-05-03T00:19:01.673Z,9.70
2023-05-03T00:21:29.136Z,9.70
2023-05-03T00:23:56.536Z,9.70
2023-05-03T00:26:24.114Z,9.70
2023-05-03T00:28:51.460Z,9.60
2023-05-03T00:31:19.644Z,9.60
2023-05-03T00:33:47.023Z,9.50
2023-05-03T00:36:15.021Z,9.50
2023-05-03T00:38:42.366Z,9.50
2023-05-03T00:41:10.215Z,9.50
2023-05-03T00:43:37.875Z,9.50
2023-05-03T00:46:15.909Z,9.50
2023-05-03T00:48:49.195Z,9.40
2023-05-03T00:51:16.637Z,9.40
2023-05-03T00:53:43.995Z,9.40
2023-05-03T00:56:12.029Z,9.40
2023-05-03T00:58:40.623Z,9.40
2023-05-03T01:01:09.626Z,9.30
2023-05-03T01:03:39.701Z,9.30
2023-05-03T01:06:41.539Z,9.30
2023-05-03T01:09:11.111Z,9.30
2023-05-03T01:12:12.574Z,9.30
2023-05-03T01:14:58.508Z,9.30
2023-05-03T01:17:28.918Z,9.30
2023-05-03T01:20:11.263Z,9.30
2023-05-03T01:22:41.796Z,9.30
2023-05-03T01:25:12.873Z,9.30
2023-05-03T01:27:41.144Z,9.30
2023-05-03T01:30:12.527Z,9.30
2023-05-03T01:33:07.944Z,9.30
2023-05-03T01:35:52.936Z,9.20
2023-05-03T01:38:20.495Z,9.30
2023-05-03T01:40:55.920Z,9.30
2023-05-03T01:43:23.520Z,9.20
2023-05-03T01:45:50.986Z,9.20
2023-05-03T01:48:19.989Z,9.30
2023-05-03T01:50:47.331Z,9.30
2023-05-03T01:53:14.773Z,9.30
2023-05-03T01:55:43.729Z,9.30
2023-05-03T01:58:12.639Z,9.30
2023-05-03T02:00:39.979Z,9.30
2023-05-03T02:03:07.435Z,9.30
2023-05-03T02:05:35.487Z,9.30
2023-05-03T02:08:03.492Z,9.40
2023-05-03T02:10:30.779Z,9.40
2023-05-03T02:12:58.738Z,9.50
2023-05-03T02:15:26.103Z,9.50
2023-05-03T02:17:54.305Z,9.50
2023-05-03T02:20:22.032Z,9.50
2023-05-03T02:22:49.369Z,9.60
2023-05-03T02:25:16.657Z,9.60
2023-05-03T02:27:45.634Z,9.60
2023-05-03T02:30:13.462Z,9.60
2023-05-03T02:32:43.719Z,9.60
2023-05-03T02:35:11.388Z,9.60
2023-05-03T02:37:38.721Z,9.70
2023-05-03T02:40:11.270Z,9.60
2023-05-03T02:42:39.251Z,9.70
2023-05-03T02:45:08.467Z,9.60
2023-05-03T02:47:35.997Z,9.70
2023-05-03T02:50:03.688Z,9.70
2023-05-03T02:52:34.752Z,9.60
2023-05-03T02:55:02.294Z,9.60
2023-05-03T02:57:29.817Z,9.60
2023-05-03T02:59:58.548Z,9.60
2023-05-03T03:02:27.063Z,9.60
2023-05-03T03:04:54.704Z,9.50
2023-05-03T03:07:23.920Z,9.60
2023-05-03T03:09:55.313Z,9.60
2023-05-03T03:12:22.734Z,9.50
2023-05-03T03:14:50.332Z,9.50
2023-05-03T03:17:17.630Z,9.50
2023-05-03T03:19:45.009Z,9.50
2023-05-03T03:22:13.081Z,9.40
2023-05-03T03:24:40.488Z,9.40
2023-05-03T03:27:07.864Z,9.30
2023-05-03T03:29:35.552Z,9.30
2023-05-03T03:32:05.116Z,9.30
2023-05-03T03:34:33.102Z,9.30
2023-05-03T03:37:01.036Z,9.30
2023-05-03T03:39:29.354Z,9.20
2023-05-03T03:41:56.763Z,9.20
2023-05-03T03:44:24.143Z,9.20
2023-05-03T03:46:51.513Z,9.20
2023-05-03T03:49:19.631Z,9.20
2023-05-03T03:51:47.066Z,9.10
2023-05-03T03:54:14.627Z,9.10
2023-05-03T03:56:46.376Z,9.10
2023-05-03T03:59:13.918Z,9.00
2023-05-03T04:01:41.836Z,9.00
2023-05-03T04:04:10.070Z,9.00
2023-05-03T04:06:38.158Z,9.00
2023-05-03T04:09:10.462Z,9.10
2023-05-03T04:11:38.114Z,9.10
2023-05-03T04:14:06.315Z,9.10
2023-05-03T04:16:33.917Z,9.10
2023-05-03T04:19:03.644Z,9.10
2023-05-03T04:21:32.906Z,9.10
2023-05-03T04:24:04.427Z,9.10
2023-05-03T04:26:32.959Z,9.10
2023-05-03T04:29:10.843Z,9.10
2023-05-03T04:31:39.760Z,9.20
2023-05-03T04:34:07.750Z,9.20
2023-05-03T04:36:35.656Z,9.20
2023-05-03T04:39:03.727Z,9.20
2023-05-03T04:41:32.294Z,9.20
2023-05-03T04:43:59.812Z,9.20
2023-05-03T04:46:28.162Z,9.10
2023-05-03T04:48:56.457Z,9.10
2023-05-03T04:51:24.124Z,9.10
2023-05-03T04:53:53.412Z,9.00
2023-05-03T04:56:26.266Z,9.00
2023-05-03T04:58:59.191Z,9.00
2023-05-03T05:01:28.211Z,9.00
2023-05-03T05:03:59.904Z,9.00
2023-05-03T05:06:34.496Z,9.00
2023-05-03T05:09:02.918Z,9.00
2023-05-03T05:11:30.238Z,8.90
2023-05-03T05:13:58.481Z,9.00
2023-05-03T05:16:26.752Z,9.00
2023-05-03T05:18:54.590Z,9.00
2023-05-03T05:21:25.632Z,9.00
2023-05-03T05:23:53.167Z,9.00
2023-05-03T05:26:20.939Z,9.00
2023-05-03T05:28:49.993Z,9.00
2023-05-03T05:31:17.454Z,9.00
2023-05-03T05:33:44.776Z,9.00
2023-05-03T05:36:13.093Z,9.10
2023-05-03T05:38:41.492Z,9.10
2023-05-03T05:41:13.173Z,9.20
2023-05-03T05:43:43.085Z,9.20
2023-05-03T05:46:10.699Z,9.20
2023-05-03T05:48:39.302Z,9.20
2023-05-03T05:51:07.534Z,9.30
2023-05-03T05:53:34.893Z,9.30
2023-05-03T05:56:03.137Z,9.30
2023-05-03T05:58:32.958Z,9.30
2023-05-03T06:01:01.457Z,9.30
2023-05-03T06:03:31.855Z,9.30
2023-05-03T06:06:01.356Z,9.30
2023-05-03T06:08:28.827Z,9.40
2023-05-03T06:10:56.185Z,9.40
2023-05-03T06:13:25.015Z,9.40
2023-05-03T06:15:52.594Z,9.40
2023-05-03T06:18:20.042Z,9.50
2023-05-03T06:20:50.732Z,9.50
2023-05-03T06:23:19.293Z,9.50
2023-05-03T06:25:47.683Z,9.50
2023-05-03T06:28:17.178Z,9.50
2023-05-03T06:30:51.838Z,9.50
2023-05-03T06:33:19.211Z,9.60
2023-05-03T06:35:49.348Z,9.50
2023-05-03T06:38:18.584Z,9.50
2023-05-03T06:40:46.823Z,9.50
2023-05-03T06:43:14.301Z,9.50
2023-05-03T06:45:51.594Z,9.50
2023-05-03T06:48:19.351Z,9.40
2023-05-03T06:50:46.844Z,9.50
2023-05-03T06:53:15.595Z,9.50
2023-05-03T06:55:46.398Z,9.60
2023-05-03T06:58:13.737Z,9.70
2023-05-03T07:00:41.189Z,9.80
2023-05-03T07:03:08.716Z,9.80
2023-05-03T07:05:36.357Z,9.80
2023-05-03T07:08:03.856Z,9.90
2023-05-03T07:10:31.611Z,9.80
2023-05-03T07:12:59.191Z,9.80
2023-05-03T07:15:26.567Z,9.80
2023-05-03T07:17:53.958Z,9.90
2023-05-03T07:20:21.549Z,9.90
2023-05-03T07:22:48.914Z,9.90
2023-05-03T07:25:17.832Z,9.90
2023-05-03T07:27:45.497Z,9.90
2023-05-03T07:30:13.245Z,10.00
2023-05-03T07:32:40.897Z,10.10
2023-05-03T07:35:09.267Z,10.10
2023-05-03T07:37:38.552Z,10.20
2023-05-03T07:40:07.208Z,10.30
2023-05-03T07:42:34.557Z,10.30
2023-05-03T07:45:02.369Z,10.40
2023-05-03T07:47:29.888Z,10.40
2023-05-03T07:49:57.211Z,10.40
2023-05-03T07:52:24.578Z,10.40
2023-05-03T07:54:53.260Z,10.50
2023-05-03T07:57:23.279Z,10.50
2023-05-03T07:59:51.046Z,10.50
2023-05-03T08:02:18.486Z,10.60
2023-05-03T08:04:46.242Z,10.70
2023-05-03T08:07:14.390Z,10.70
2023-05-03T08:09:41.817Z,10.80
2023-05-03T08:12:09.242Z,10.90
2023-05-03T08:14:37.684Z,10.90
2023-05-03T08:17:05.071Z,10.90
2023-05-03T08:19:32.426Z,10.90
2023-05-03T08:21:59.902Z,11.00
2023-05-03T08:24:27.223Z,11.00
2023-05-03T08:26:55.325Z,11.10
2023-05-03T08:29:22.784Z,11.10
2023-05-03T08:31:50.268Z,11.10
2023-05-03T08:34:17.801Z,11.20
2023-05-03T08:36:45.162Z,11.20
2023-05-03T08:39:15.270Z,11.20
2023-05-03T08:41:42.803Z,11.30
2023-05-03T08:44:12.129Z,11.30
2023-05-03T08:46:39.543Z,11.30
2023-05-03T08:49:07.476Z,11.40
2023-05-03T08:51:35.965Z,11.50
2023-05-03T08:54:03.971Z,11.50
2023-05-03T08:56:44.384Z,11.60
2023-05-03T08:59:11.927Z,11.60
2023-05-03T09:01:40.418Z,11.60
2023-05-03T09:04:09.779Z,11.70
2023-05-03T09:06:37.347Z,11.70
2023-05-03T09:09:07.510Z,11.80
2023-05-03T09:11:36.158Z,11.80
2023-05-03T09:14:14.737Z,11.80
2023-05-03T09:16:44.580Z,11.90
2023-05-03T09:19:13.008Z,11.80
2023-05-03T09:21:41.154Z,11.80
2023-05-03T09:24:27.269Z,11.90
2023-05-03T09:26:58.543Z,12.00
2023-05-03T09:29:30.889Z,12.00
2023-05-03T09:32:00.521Z,12.10
2023-05-03T09:34:28.025Z,12.10
2023-05-03T09:36:56.282Z,12.10
2023-05-03T09:39:23.781Z,12.20
2023-05-03T09:41:51.212Z,12.20
2023-05-03T09:44:18.542Z,12.20
2023-05-03T09:47:05.096Z,12.20
2023-05-03T09:49:33.066Z,12.30
2023-05-03T09:52:01.277Z,12.30
2023-05-03T09:54:31.276Z,12.50
2023-05-03T09:56:59.213Z,12.60
2023-05-03T09:59:26.735Z,12.60
2023-05-03T10:01:58.877Z,12.70
2023-05-03T10:04:28.057Z,12.80
2023-05-03T10:07:00.497Z,12.90
2023-05-03T10:09:38.126Z,13.00
2023-05-03T10:12:07.532Z,13.00
2023-05-03T10:14:35.485Z,13.10
2023-05-03T10:17:04.641Z,13.20
2023-05-03T10:19:37.885Z,13.30
2023-05-03T10:22:09.595Z,13.30
2023-05-03T10:25:02.565Z,13.30
2023-05-03T10:27:48.660Z,13.30
2023-05-03T10:30:33.103Z,13.40
2023-05-03T10:33:09.786Z,13.60
2023-05-03T10:35:39.973Z,13.70
2023-05-03T10:38:24.089Z,13.80
2023-05-03T10:40:52.054Z,13.70
2023-05-03T10:43:34.529Z,13.80
2023-05-03T10:46:05.986Z,13.90
2023-05-03T10:48:33.831Z,13.80
2023-05-03T10:51:30.669Z,13.90
2023-05-03T10:53:58.075Z,14.00
2023-05-03T10:56:25.741Z,14.00
2023-05-03T10:58:56.896Z,14.10
2023-05-03T11:01:25.259Z,14.20
2023-05-03T11:04:06.547Z,14.20
2023-05-03T11:06:36.059Z,14.30
2023-05-03T11:09:06.056Z,14.30
2023-05-03T11:11:34.724Z,14.40
2023-05-03T11:14:02.144Z,14.50
2023-05-03T11:16:29.689Z,14.60
2023-05-03T11:18:57.059Z,14.70
2023-05-03T11:21:24.402Z,14.70
2023-05-03T11:23:51.757Z,14.70
2023-05-03T11:26:22.421Z,14.60
2023-05-03T11:28:49.809Z,14.70
2023-05-03T11:31:17.197Z,14.60
2023-05-03T11:33:46.546Z,14.60
2023-05-03T11:36:15.259Z,14.60
2023-05-03T11:38:42.583Z,14.70
2023-05-03T11:41:16.809Z,14.90
2023-05-03T11:43:44.673Z,15.10
2023-05-03T11:46:13.590Z,15.20
2023-05-03T11:48:42.689Z,15.30
2023-05-03T11:51:13.817Z,15.30
2023-05-03T11:53:42.834Z,15.40
2023-05-03T11:56:13.963Z,15.30
2023-05-03T11:58:56.037Z,15.40
2023-05-03T12:01:24.927Z,15.50
2023-05-03T12:04:00.140Z,15.50
2023-05-03T12:06:28.955Z,15.60
2023-05-03T12:08:57.332Z,15.70
2023-05-03T12:11:27.081Z,15.80
2023-05-03T12:13:58.964Z,15.80
2023-05-03T12:16:27.101Z,15.90
2023-05-03T12:18:58.799Z,16.00
2023-05-03T12:24:33.267Z,16.00
2023-05-03T12:27:03.234Z,16.00
2023-05-03T12:29:35.421Z,16.10
2023-05-03T12:32:04.827Z,16.10
2023-05-03T12:34:36.200Z,16.10
2023-05-03T12:37:05.588Z,16.30
2023-05-03T12:39:34.495Z,16.30
2023-05-03T12:42:08.052Z,16.40
2023-05-03T12:44:41.424Z,16.50
2023-05-03T12:47:10.538Z,16.60
2023-05-03T12:49:39.333Z,16.60
2023-05-03T12:54:41.529Z,16.60
2023-05-03T12:57:15.577Z,16.70
2023-05-03T12:59:44.238Z,16.70
2023-05-03T13:03:19.353Z,16.80
2023-05-03T13:05:12.067Z,17.00
2023-05-03T13:07:55.584Z,17.10
2023-05-03T13:10:24.598Z,17.10
2023-05-03T13:12:53.851Z,17.10
2023-05-03T13:15:21.212Z,17.10
2023-05-03T13:17:50.136Z,17.20
2023-05-03T13:20:20.316Z,17.30
2023-05-03T13:22:48.992Z,17.40
2023-05-03T13:25:16.485Z,17.40
2023-05-03T13:27:44.194Z,17.50
2023-05-03T13:30:11.777Z,17.60
2023-05-03T13:32:39.158Z,17.60
2023-05-03T13:35:07.707Z,17.50
2023-05-03T13:37:35.399Z,17.60
2023-05-03T13:40:03.046Z,17.70
2023-05-03T13:42:30.619Z,17.80
2023-05-03T13:44:58.658Z,17.80
2023-05-03T13:47:29.128Z,17.70
2023-05-03T13:50:00.696Z,17.70
2023-05-03T13:52:28.068Z,17.50
2023-05-03T13:54:55.530Z,17.40
2023-05-03T13:57:23.124Z,17.20
2023-05-03T13:59:50.988Z,17.20
2023-05-03T14:02:18.392Z,17.10
2023-05-03T14:04:46.476Z,17.00
2023-05-03T14:07:13.856Z,16.90
2023-05-03T14:09:42.179Z,16.90
2023-05-03T14:12:10.010Z,17.00
2023-05-03T14:14:37.491Z,17.20
2023-05-03T14:17:30.480Z,17.20
2023-05-03T14:20:01.160Z,17.30
2023-05-03T14:22:29.115Z,17.30
2023-05-03T14:24:56.697Z,17.40
2023-05-03T14:27:24.295Z,17.50
2023-05-03T14:29:51.931Z,17.60
2023-05-03T14:32:20.433Z,17.70
2023-05-03T14:34:47.976Z,17.80
2023-05-03T14:37:15.514Z,17.90
2023-05-03T14:39:42.834Z,17.90
2023-05-03T14:42:10.794Z,18.00
2023-05-03T14:44:38.223Z,18.00
2023-05-03T14:47:07.301Z,18.10
2023-05-03T14:49:40.487Z,18.10
2023-05-03T14:52:08.817Z,18.20
2023-05-03T14:54:37.343Z,18.20
2023-05-03T14:57:04.972Z,18.20
2023-05-03T14:59:33.249Z,18.30
2023-05-03T15:02:01.030Z,18.40
2023-05-03T15:04:29.132Z,18.50
2023-05-03T15:07:00.903Z,18.50
2023-05-03T15:09:28.605Z,18.40
2023-05-03T15:11:56.032Z,18.30
2023-05-03T15:14:23.533Z,18.10
2023-05-03T15:16:51.039Z,18.00
2023-05-03T15:19:18.431Z,17.90
2023-05-03T15:21:50.591Z,17.80
2023-05-03T15:24:18.032Z,17.70
2023-05-03T15:26:46.833Z,17.70
2023-05-03T15:29:15.318Z,17.60
2023-05-03T15:31:43.655Z,17.60
2023-05-03T15:34:12.321Z,17.60
2023-05-03T15:36:40.667Z,17.60
2023-05-03T15:39:09.327Z,17.70
2023-05-03T15:41:36.851Z,17.80
2023-05-03T15:44:05.508Z,18.00
2023-05-03T15:46:34.220Z,18.10
2023-05-03T15:49:01.855Z,18.10
2023-05-03T15:51:29.350Z,18.20
2023-05-03T15:53:56.788Z,18.20
2023-05-03T15:56:24.466Z,18.10
2023-05-03T15:58:51.847Z,18.10
2023-05-03T16:01:19.285Z,18.10
2023-05-03T16:03:47.994Z,18.00
2023-05-03T16:06:18.518Z,17.90
2023-05-03T16:08:45.980Z,17.90
2023-05-03T16:11:13.434Z,17.90
2023-05-03T16:13:40.952Z,17.90
2023-05-03T16:16:08.426Z,17.80
2023-05-03T16:18:35.914Z,17.70
2023-05-03T16:21:03.418Z,17.70
2023-05-03T16:23:30.907Z,17.60
2023-05-03T16:25:58.261Z,17.50
2023-05-03T16:28:25.606Z,17.50
2023-05-03T16:30:52.998Z,17.50
2023-05-03T16:33:20.418Z,17.40
2023-05-03T16:35:47.771Z,17.40
2023-05-03T16:38:15.093Z,17.40
2023-05-03T16:40:43.285Z,17.30
2023-05-03T16:43:10.656Z,17.30
2023-05-03T16:45:38.067Z,17.30
2023-05-03T16:48:08.151Z,17.20
2023-05-03T16:50:37.686Z,17.20
2023-05-03T16:53:05.202Z,17.20
2023-05-03T16:55:32.542Z,17.20
2023-05-03T16:58:00.081Z,17.20
2023-05-03T17:00:28.983Z,17.20
2023-05-03T17:02:56.619Z,17.20
2023-05-03T17:05:25.577Z,17.10
2023-05-03T17:07:53.037Z,17.10
2023-05-03T17:10:20.498Z,17.10
2023-05-03T17:12:48.167Z,17.10
2023-05-03T17:15:16.862Z,17.10
2023-05-03T17:17:44.287Z,17.00
2023-05-03T17:20:12.927Z,17.00
2023-05-03T17:22:40.350Z,17.00
2023-05-03T17:25:08.647Z,17.00
2023-05-03T17:27:39.033Z,17.00
2023-05-03T17:30:07.350Z,17.00
2023-05-03T17:32:34.867Z,16.90
2023-05-03T17:35:02.622Z,16.80
2023-05-03T17:37:29.978Z,16.80
2023-05-03T17:39:58.091Z,16.80
2023-05-03T17:42:25.908Z,16.70
2023-05-03T17:44:54.808Z,16.70
2023-05-03T17:47:22.981Z,16.60
2023-05-03T17:49:50.643Z,16.60
2023-05-03T17:52:18.164Z,16.50
2023-05-03T17:54:46.268Z,16.50
2023-05-03T17:57:13.603Z,16.40
2023-05-03T17:59:40.984Z,16.40
2023-05-03T18:02:09.030Z,16.40
2023-05-03T18:04:36.468Z,16.40
2023-05-03T18:07:03.792Z,16.30
2023-05-03T18:09:33.010Z,16.30
2023-05-03T18:12:01.977Z,16.20
2023-05-03T18:14:29.504Z,16.10
2023-05-03T18:16:57.106Z,16.10
2023-05-03T18:19:24.513Z,16.00
2023-05-03T18:21:51.976Z,16.00
2023-05-03T18:24:19.359Z,16.00
2023-05-03T18:26:47.171Z,15.90
2023-05-03T18:29:14.815Z,15.90
2023-05-03T18:31:42.256Z,15.90
2023-05-03T18:34:09.750Z,15.80
2023-05-03T18:36:37.127Z,15.80
2023-05-03T18:39:04.893Z,15.70
2023-05-03T18:41:32.304Z,15.70
2023-05-03T18:43:59.675Z,15.60
2023-05-03T18:46:27.190Z,15.60
2023-05-03T18:48:54.721Z,15.60
2023-05-03T18:51:23.149Z,15.50
2023-05-03T18:53:50.594Z,15.50
2023-05-03T18:56:17.958Z,15.50
2023-05-03T18:58:47.288Z,15.50
2023-05-03T19:01:14.687Z,15.50
2023-05-03T19:03:42.060Z,15.40
2023-05-03T19:06:10.060Z,15.40
2023-05-03T19:08:37.498Z,15.30
2023-05-03T19:11:09.046Z,15.30
2023-05-03T19:13:36.503Z,15.20
2023-05-03T19:16:04.075Z,15.20
2023-05-03T19:18:31.937Z,15.20
2023-05-03T19:20:59.490Z,15.10
2023-05-03T19:23:27.184Z,15.10
2023-05-03T19:25:54.582Z,15.00
2023-05-03T19:28:22.005Z,14.90
2023-05-03T19:30:51.887Z,14.90
2023-05-03T19:33:19.922Z,14.90
2023-05-03T19:35:47.591Z,14.80
2023-05-03T19:38:14.985Z,14.80
2023-05-03T19:40:42.502Z,14.70
2023-05-03T19:43:09.853Z,14.70
2023-05-03T19:45:46.373Z,14.60
2023-05-03T19:48:16.551Z,14.50
2023-05-03T19:50:44.605Z,14.50
2023-05-03T19:53:12.005Z,14.40
2023-05-03T19:55:39.331Z,14.40
2023-05-03T19:58:07.416Z,14.40
2023-05-03T20:00:34.825Z,14.40
2023-05-03T20:03:02.313Z,14.40
2023-05-03T20:05:29.730Z,14.40
2023-05-03T20:07:57.046Z,14.40
2023-05-03T20:10:24.801Z,14.40
2023-05-03T20:12:52.207Z,14.40
2023-05-03T20:15:19.605Z,14.40
2023-05-03T20:17:46.897Z,14.30
2023-05-03T20:20:16.326Z,14.30
2023-05-03T20:22:43.601Z,14.30
2023-05-03T20:25:11.020Z,14.20
2023-05-03T20:27:38.312Z,14.20
2023-05-03T20:30:06.625Z,14.10
2023-05-03T20:32:36.369Z,14.10
2023-05-03T20:35:05.017Z,14.10
2023-05-03T20:37:32.525Z,14.00
2023-05-03T20:40:00.187Z,14.00
2023-05-03T20:42:27.542Z,14.00
2023-05-03T20:44:54.872Z,13.90
2023-05-03T20:47:22.330Z,13.90
2023-05-03T20:49:49.653Z,13.90
2023-05-03T20:52:17.361Z,13.90
2023-05-03T20:54:46.536Z,13.80
2023-05-03T20:57:15.893Z,13.80
2023-05-03T20:59:44.283Z,13.80
2023-05-03T21:02:12.233Z,13.80
2023-05-03T21:04:39.668Z,13.80
2023-05-03T21:07:07.024Z,13.80
2023-05-03T21:09:34.419Z,13.80
2023-05-03T21:12:04.044Z,13.70
2023-05-03T21:14:31.458Z,13.80
2023-05-03T21:16:59.046Z,13.70
2023-05-03T21:19:26.508Z,13.70
2023-05-03T21:21:54.071Z,13.70
2023-05-03T21:24:21.457Z,13.70
2023-05-03T21:26:48.953Z,13.70
2023-05-03T21:29:17.350Z,13.60
2023-05-03T21:31:44.774Z,13.60
2023-05-03T21:34:12.098Z,13.60
2023-05-03T21:36:39.556Z,13.50
2023-05-03T21:39:07.081Z,13.50
2023-05-03T21:41:34.720Z,13.50
2023-05-03T21:44:02.257Z,13.40
2023-05-03T21:46:29.606Z,13.40
2023-05-03T21:48:57.076Z,13.40
2023-05-03T21:51:25.626Z,13.30
2023-05-03T21:53:53.506Z,13.30
2023-05-03T21:56:20.895Z,13.30
2023-05-03T21:58:48.328Z,13.30
2023-05-03T22:01:16.767Z,13.20
2023-05-03T22:03:44.358Z,13.20
2023-05-03T22:06:12.142Z,13.10
2023-05-03T22:08:39.452Z,13.10
2023-05-03T22:11:07.177Z,13.00
2023-05-03T22:13:39.129Z,13.00
2023-05-03T22:16:12.388Z,13.00
2023-05-03T22:18:39.872Z,13.00
2023-05-03T22:21:07.331Z,12.90
2023-05-03T22:23:34.804Z,12.90
2023-05-03T22:26:02.375Z,12.80
2023-05-03T22:28:29.658Z,12.80
2023-05-03T22:30:57.477Z,12.80
2023-05-03T22:33:24.967Z,12.70
2023-05-03T22:35:52.384Z,12.70
2023-05-03T22:38:19.680Z,12.60
2023-05-03T22:40:47.062Z,12.60
2023-05-03T22:43:14.409Z,12.50
2023-05-03T22:45:41.937Z,12.50
2023-05-03T22:48:09.367Z,12.50
2023-05-03T22:50:36.866Z,12.40
2023-05-03T22:53:04.239Z,12.40
2023-05-03T22:55:31.604Z,12.40
2023-05-03T22:57:58.985Z,12.40
2023-05-03T23:00:26.892Z,12.30
2023-05-03T23:02:54.751Z,12.30
2023-05-03T23:05:22.308Z,12.30
2023-05-03T23:07:49.774Z,12.20
2023-05-03T23:10:17.285Z,12.20
2023-05-03T23:12:44.976Z,12.10
2023-05-03T23:15:12.483Z,12.00
2023-05-03T23:17:40.008Z,12.00
2023-05-03T23:20:08.660Z,11.90
2023-05-03T23:22:35.937Z,11.90
2023-05-03T23:25:03.639Z,11.80
2023-05-03T23:27:31.440Z,11.80
2023-05-03T23:29:59.377Z,11.70
2023-05-03T23:32:27.169Z,11.70
2023-05-03T23:34:54.922Z,11.70
2023-05-03T23:37:22.232Z,11.60
2023-05-03T23:39:49.613Z,11.70
2023-05-03T23:42:16.915Z,11.60
2023-05-03T23:44:54.641Z,11.50
2023-05-03T23:47:23.086Z,11.50
2023-05-03T23:49:50.960Z,11.50
2023-05-03T23:52:19.923Z,11.50
2023-05-03T23:54:47.450Z,11.50
2023-05-03T23:57:14.818Z,11.50
2023-05-03T23:59:42.250Z,11.50
